sensor_id;sensor_type;location;lat;lon;timestamp;pressure;altitude;pressure_sealevel;temperature;humidity
69574;BME280;62840;52.366;5.980;2022-09-30T00:01:11;100724.41;;;6.72;71.67
69574;BME280;62840;52.366;5.980;2022-09-30T00:03:37;100723.53;;;6.72;71.96
69574;BME280;62840;52.366;5.980;2022-09-30T00:06:04;100728.81;;;6.72;71.73
69574;BME280;62840;52.366;5.980;2022-09-30T00:08:32;100722.59;;;6.73;71.74
69574;BME280;62840;52.366;5.980;2022-09-30T00:10:59;100724.28;;;6.74;71.63
69574;BME280;62840;52.366;5.980;2022-09-30T00:13:30;100733.09;;;6.75;71.65
69574;BME280;62840;52.366;5.980;2022-09-30T00:16:05;100729.78;;;6.71;71.58
69574;BME280;62840;52.366;5.980;2022-09-30T00:18:33;100734.34;;;6.69;71.65
69574;BME280;62840;52.366;5.980;2022-09-30T00:20:59;100732.66;;;6.68;71.66
69574;BME280;62840;52.366;5.980;2022-09-30T00:23:27;100730.09;;;6.66;71.55
69574;BME280;62840;52.366;5.980;2022-09-30T00:25:57;100731.16;;;6.64;71.40
69574;BME280;62840;52.366;5.980;2022-09-30T00:28:30;100726.06;;;6.61;71.48
69574;BME280;62840;52.366;5.980;2022-09-30T00:30:58;100728.84;;;6.59;71.58
69574;BME280;62840;52.366;5.980;2022-09-30T00:33:26;100736.88;;;6.58;71.57
69574;BME280;62840;52.366;5.980;2022-09-30T00:35:53;100736.97;;;6.56;71.55
69574;BME280;62840;52.366;5.980;2022-09-30T00:38:19;100737.19;;;6.53;71.71
69574;BME280;62840;52.366;5.980;2022-09-30T00:40:45;100730.19;;;6.52;71.91
69574;BME280;62840;52.366;5.980;2022-09-30T00:43:15;100739.19;;;6.49;71.94
69574;BME280;62840;52.366;5.980;2022-09-30T00:45:48;100741.00;;;6.49;71.99
69574;BME280;62840;52.366;5.980;2022-09-30T00:48:20;100737.50;;;6.48;71.95
69574;BME280;62840;52.366;5.980;2022-09-30T00:50:51;100741.09;;;6.47;71.99
69574;BME280;62840;52.366;5.980;2022-09-30T00:53:25;100746.38;;;6.47;72.10
69574;BME280;62840;52.366;5.980;2022-09-30T00:56:03;100750.97;;;6.45;71.81
69574;BME280;62840;52.366;5.980;2022-09-30T00:58:39;100746.59;;;6.44;71.79
69574;BME280;62840;52.366;5.980;2022-09-30T01:01:31;100741.31;;;6.44;71.94
69574;BME280;62840;52.366;5.980;2022-09-30T01:04:02;100737.72;;;6.45;71.88
69574;BME280;62840;52.366;5.980;2022-09-30T01:06:35;100742.88;;;6.47;72.00
69574;BME280;62840;52.366;5.980;2022-09-30T01:09:04;100748.31;;;6.45;71.81
69574;BME280;62840;52.366;5.980;2022-09-30T01:11:31;100754.53;;;6.44;71.78
69574;BME280;62840;52.366;5.980;2022-09-30T01:14:03;100755.50;;;6.43;71.79
69574;BME280;62840;52.366;5.980;2022-09-30T01:16:47;100756.44;;;6.42;71.82
69574;BME280;62840;52.366;5.980;2022-09-30T01:19:45;100757.59;;;6.38;71.96
69574;BME280;62840;52.366;5.980;2022-09-30T01:22:39;100755.91;;;6.37;72.13
69574;BME280;62840;52.366;5.980;2022-09-30T01:25:34;100751.53;;;6.36;72.10
69574;BME280;62840;52.366;5.980;2022-09-30T01:31:46;100752.72;;;6.32;71.98
69574;BME280;62840;52.366;5.980;2022-09-30T01:34:25;100745.72;;;6.31;71.96
69574;BME280;62840;52.366;5.980;2022-09-30T01:37:06;100753.66;;;6.31;71.78
69574;BME280;62840;52.366;5.980;2022-09-30T01:39:48;100752.91;;;6.29;72.09
69574;BME280;62840;52.366;5.980;2022-09-30T01:42:26;100753.88;;;6.28;72.10
69574;BME280;62840;52.366;5.980;2022-09-30T01:45:09;100747.81;;;6.26;72.00
69574;BME280;62840;52.366;5.980;2022-09-30T01:47:46;100751.63;;;6.22;71.96
69574;BME280;62840;52.366;5.980;2022-09-30T01:50:28;100745.56;;;6.20;72.14
69574;BME280;62840;52.366;5.980;2022-09-30T01:53:07;100751.84;;;6.19;72.15
69574;BME280;62840;52.366;5.980;2022-09-30T01:55:46;100750.34;;;6.15;71.81
69574;BME280;62840;52.366;5.980;2022-09-30T01:58:21;100751.38;;;6.12;71.85
69574;BME280;62840;52.366;5.980;2022-09-30T02:00:57;100749.03;;;6.07;71.90
69574;BME280;62840;52.366;5.980;2022-09-30T02:03:33;100744.50;;;6.09;72.07
69574;BME280;62840;52.366;5.980;2022-09-30T02:06:06;100749.03;;;6.07;71.99
69574;BME280;62840;52.366;5.980;2022-09-30T02:08:40;100756.22;;;6.05;71.69
69574;BME280;62840;52.366;5.980;2022-09-30T02:11:14;100754.72;;;6.01;71.99
69574;BME280;62840;52.366;5.980;2022-09-30T02:13:46;100749.66;;;5.98;72.03
69574;BME280;62840;52.366;5.980;2022-09-30T02:16:23;100754.94;;;5.98;71.95
69574;BME280;62840;52.366;5.980;2022-09-30T02:19:00;100756.84;;;5.96;71.77
69574;BME280;62840;52.366;5.980;2022-09-30T02:21:38;100749.81;;;5.95;72.00
69574;BME280;62840;52.366;5.980;2022-09-30T02:24:13;100764.19;;;5.91;71.95
69574;BME280;62840;52.366;5.980;2022-09-30T02:26:49;100749.50;;;5.87;71.78
69574;BME280;62840;52.366;5.980;2022-09-30T02:29:24;100764.63;;;5.85;71.93
69574;BME280;62840;52.366;5.980;2022-09-30T02:32:02;100756.78;;;5.83;71.90
69574;BME280;62840;52.366;5.980;2022-09-30T02:34:38;100761.38;;;5.80;72.11
69574;BME280;62840;52.366;5.980;2022-09-30T02:37:11;100779.19;;;5.78;72.18
69574;BME280;62840;52.366;5.980;2022-09-30T02:39:50;100774.06;;;5.75;72.22
69574;BME280;62840;52.366;5.980;2022-09-30T02:42:25;100770.69;;;5.73;71.99
69574;BME280;62840;52.366;5.980;2022-09-30T02:44:57;100765.59;;;5.70;71.95
69574;BME280;62840;52.366;5.980;2022-09-30T02:47:39;100761.22;;;5.68;72.07
69574;BME280;62840;52.366;5.980;2022-09-30T02:50:26;100763.88;;;5.68;72.13
69574;BME280;62840;52.366;5.980;2022-09-30T02:53:06;100769.16;;;5.68;72.07
69574;BME280;62840;52.366;5.980;2022-09-30T02:58:50;100766.53;;;5.68;72.08
69574;BME280;62840;52.366;5.980;2022-09-30T03:01:19;100778.91;;;5.68;72.27
69574;BME280;62840;52.366;5.980;2022-09-30T03:03:46;100779.88;;;5.67;72.00
69574;BME280;62840;52.366;5.980;2022-09-30T03:06:20;100774.47;;;5.68;72.13
69574;BME280;62840;52.366;5.980;2022-09-30T03:08:52;100773.63;;;5.68;72.16
69574;BME280;62840;52.366;5.980;2022-09-30T03:11:19;100776.19;;;5.70;72.07
69574;BME280;62840;52.366;5.980;2022-09-30T03:14:12;100772.56;;;5.71;72.05
69574;BME280;62840;52.366;5.980;2022-09-30T03:17:05;100766.53;;;5.68;72.32
69574;BME280;62840;52.366;5.980;2022-09-30T03:20:19;100765.78;;;5.66;72.42
69574;BME280;62840;52.366;5.980;2022-09-30T03:23:14;100773.63;;;5.68;72.42
69574;BME280;62840;52.366;5.980;2022-09-30T03:26:11;100778.06;;;5.67;72.14
69574;BME280;62840;52.366;5.980;2022-09-30T03:28:53;100786.09;;;5.66;72.33
69574;BME280;62840;52.366;5.980;2022-09-30T03:31:39;100783.56;;;5.64;72.26
69574;BME280;62840;52.366;5.980;2022-09-30T03:34:19;100783.56;;;5.64;72.10
69574;BME280;62840;52.366;5.980;2022-09-30T03:36:58;100785.44;;;5.62;72.43
69574;BME280;62840;52.366;5.980;2022-09-30T03:39:40;100799.59;;;5.61;72.49
69574;BME280;62840;52.366;5.980;2022-09-30T03:42:23;100789.03;;;5.61;72.46
69574;BME280;62840;52.366;5.980;2022-09-30T03:45:01;100788.19;;;5.61;72.31
69574;BME280;62840;52.366;5.980;2022-09-30T03:47:35;100783.72;;;5.61;72.26
69574;BME280;62840;52.366;5.980;2022-09-30T03:50:20;100780.25;;;5.61;72.51
69574;BME280;62840;52.366;5.980;2022-09-30T03:52:54;100782.97;;;5.59;72.43
69574;BME280;62840;52.366;5.980;2022-09-30T03:55:23;100783.72;;;5.61;72.42
69574;BME280;62840;52.366;5.980;2022-09-30T03:57:50;100786.38;;;5.61;72.57
69574;BME280;62840;52.366;5.980;2022-09-30T04:00:16;100790.75;;;5.62;72.35
69574;BME280;62840;52.366;5.980;2022-09-30T04:02:42;100786.28;;;5.63;72.08
69574;BME280;62840;52.366;5.980;2022-09-30T04:05:08;100791.59;;;5.63;72.53
69574;BME280;62840;52.366;5.980;2022-09-30T04:07:35;100796.03;;;5.62;72.22
69574;BME280;62840;52.366;5.980;2022-09-30T04:10:01;100804.91;;;5.61;72.43
69574;BME280;62840;52.366;5.980;2022-09-30T04:12:46;100809.44;;;5.59;72.42
69574;BME280;62840;52.366;5.980;2022-09-30T04:15:14;100818.41;;;5.57;72.30
69574;BME280;62840;52.366;5.980;2022-09-30T04:17:43;100818.53;;;5.55;72.42
69574;BME280;62840;52.366;5.980;2022-09-30T04:20:11;100824.75;;;5.54;72.38
69574;BME280;62840;52.366;5.980;2022-09-30T04:22:36;100828.34;;;5.53;72.30
69574;BME280;62840;52.366;5.980;2022-09-30T04:25:03;100821.53;;;5.49;72.23
69574;BME280;62840;52.366;5.980;2022-09-30T04:27:32;100823.44;;;5.47;72.44
69574;BME280;62840;52.366;5.980;2022-09-30T04:30:01;100818.16;;;5.47;72.24
69574;BME280;62840;52.366;5.980;2022-09-30T04:32:29;100818.16;;;5.47;72.28
69574;BME280;62840;52.366;5.980;2022-09-30T04:34:55;100821.63;;;5.47;72.34
69574;BME280;62840;52.366;5.980;2022-09-30T04:37:24;100820.03;;;5.45;72.32
69574;BME280;62840;52.366;5.980;2022-09-30T04:39:51;100826.16;;;5.45;72.37
69574;BME280;62840;52.366;5.980;2022-09-30T04:42:18;100836.66;;;5.47;72.45
69574;BME280;62840;52.366;5.980;2022-09-30T04:44:45;100839.50;;;5.44;72.28
69574;BME280;62840;52.366;5.980;2022-09-30T04:47:16;100830.81;;;5.42;72.13
69574;BME280;62840;52.366;5.980;2022-09-30T04:49:44;100834.59;;;5.38;72.30
69574;BME280;62840;52.366;5.980;2022-09-30T04:52:10;100834.59;;;5.38;72.28
69574;BME280;62840;52.366;5.980;2022-09-30T04:54:39;100838.16;;;5.37;72.20
69574;BME280;62840;52.366;5.980;2022-09-30T04:57:06;100840.91;;;5.35;72.15
69574;BME280;62840;52.366;5.980;2022-09-30T04:59:37;100847.25;;;5.33;72.24
69574;BME280;62840;52.366;5.980;2022-09-30T05:02:03;100843.84;;;5.31;72.18
69574;BME280;62840;52.366;5.980;2022-09-30T05:04:32;100851.00;;;5.29;72.32
69574;BME280;62840;52.366;5.980;2022-09-30T05:07:00;100845.72;;;5.29;72.35
69574;BME280;62840;52.366;5.980;2022-09-30T05:09:36;100848.38;;;5.29;72.31
69574;BME280;62840;52.366;5.980;2022-09-30T05:12:03;100847.59;;;5.27;72.29
69574;BME280;62840;52.366;5.980;2022-09-30T05:14:33;100848.44;;;5.27;72.32
69574;BME280;62840;52.366;5.980;2022-09-30T05:17:00;100839.84;;;5.23;72.21
69574;BME280;62840;52.366;5.980;2022-09-30T05:19:28;100843.44;;;5.22;72.32
69574;BME280;62840;52.366;5.980;2022-09-30T05:22:05;100844.41;;;5.21;72.44
69574;BME280;62840;52.366;5.980;2022-09-30T05:24:35;100844.56;;;5.18;72.45
69574;BME280;62840;52.366;5.980;2022-09-30T05:27:03;100842.00;;;5.17;72.34
69574;BME280;62840;52.366;5.980;2022-09-30T05:29:42;100848.16;;;5.17;72.41
69574;BME280;62840;52.366;5.980;2022-09-30T05:32:08;100844.75;;;5.15;72.55
69574;BME280;62840;52.366;5.980;2022-09-30T05:34:42;100849.09;;;5.16;72.36
69574;BME280;62840;52.366;5.980;2022-09-30T05:37:16;100849.84;;;5.18;72.40
69574;BME280;62840;52.366;5.980;2022-09-30T05:39:45;100857.88;;;5.17;72.46
69574;BME280;62840;52.366;5.980;2022-09-30T05:42:15;100857.03;;;5.16;72.45
69574;BME280;62840;52.366;5.980;2022-09-30T05:44:48;100862.31;;;5.16;72.60
69574;BME280;62840;52.366;5.980;2022-09-30T05:47:28;100860.63;;;5.15;72.61
69574;BME280;62840;52.366;5.980;2022-09-30T05:49:54;100874.75;;;5.14;72.65
69574;BME280;62840;52.366;5.980;2022-09-30T05:52:23;100881.00;;;5.13;72.51
69574;BME280;62840;52.366;5.980;2022-09-30T05:54:51;100874.13;;;5.11;72.50
69574;BME280;62840;52.366;5.980;2022-09-30T05:57:17;100876.63;;;5.12;72.55
69574;BME280;62840;52.366;5.980;2022-09-30T05:59:47;100866.06;;;5.12;72.49
69574;BME280;62840;52.366;5.980;2022-09-30T06:02:13;100885.53;;;5.11;72.65
69574;BME280;62840;52.366;5.980;2022-09-30T06:04:41;100879.41;;;5.11;72.64
69574;BME280;62840;52.366;5.980;2022-09-30T06:07:09;100889.00;;;5.12;72.68
69574;BME280;62840;52.366;5.980;2022-09-30T06:09:37;100887.22;;;5.12;72.70
69574;BME280;62840;52.366;5.980;2022-09-30T06:12:06;100885.53;;;5.11;72.73
69574;BME280;62840;52.366;5.980;2022-09-30T06:14:36;100883.66;;;5.13;72.65
69574;BME280;62840;52.366;5.980;2022-09-30T06:17:02;100892.50;;;5.12;72.58
69574;BME280;62840;52.366;5.980;2022-09-30T06:19:28;100895.91;;;5.14;72.80
69574;BME280;62840;52.366;5.980;2022-09-30T06:21:54;100892.34;;;5.15;72.73
69574;BME280;62840;52.366;5.980;2022-09-30T06:24:25;100900.16;;;5.17;72.54
69574;BME280;62840;52.366;5.980;2022-09-30T06:26:54;100894.88;;;5.17;72.68
69574;BME280;62840;52.366;5.980;2022-09-30T06:29:20;100897.44;;;5.18;72.68
69574;BME280;62840;52.366;5.980;2022-09-30T06:31:47;100904.44;;;5.19;72.71
69574;BME280;62840;52.366;5.980;2022-09-30T06:34:13;100906.13;;;5.20;72.68
69574;BME280;62840;52.366;5.980;2022-09-30T06:36:39;100913.13;;;5.21;72.68
69574;BME280;62840;52.366;5.980;2022-09-30T06:39:16;100911.22;;;5.23;72.84
69574;BME280;62840;52.366;5.980;2022-09-30T06:41:42;100912.09;;;5.24;72.79
69574;BME280;62840;52.366;5.980;2022-09-30T06:44:13;100911.06;;;5.27;72.78
69574;BME280;62840;52.366;5.980;2022-09-30T06:46:41;100903.78;;;5.30;72.85
69574;BME280;62840;52.366;5.980;2022-09-30T06:49:13;100905.22;;;5.36;73.00
69574;BME280;62840;52.366;5.980;2022-09-30T06:51:38;100912.19;;;5.37;73.05
69574;BME280;62840;52.366;5.980;2022-09-30T06:54:09;100909.41;;;5.40;72.93
69574;BME280;62840;52.366;5.980;2022-09-30T06:56:38;100909.97;;;5.45;72.92
69574;BME280;62840;52.366;5.980;2022-09-30T06:59:04;100913.16;;;5.50;73.08
69574;BME280;62840;52.366;5.980;2022-09-30T07:01:33;100905.81;;;5.55;73.03
69574;BME280;62840;52.366;5.980;2022-09-30T07:03:58;100905.53;;;5.60;73.24
69574;BME280;62840;52.366;5.980;2022-09-30T07:06:29;100904.50;;;5.62;72.91
69574;BME280;62840;52.366;5.980;2022-09-30T07:09:01;100905.25;;;5.64;72.85
69574;BME280;62840;52.366;5.980;2022-09-30T07:11:28;100898.94;;;5.67;73.06
69574;BME280;62840;52.366;5.980;2022-09-30T07:13:55;100903.19;;;5.70;73.09
69574;BME280;62840;52.366;5.980;2022-09-30T07:16:24;100910.00;;;5.74;73.10
69574;BME280;62840;52.366;5.980;2022-09-30T07:18:53;100914.16;;;5.78;73.16
69574;BME280;62840;52.366;5.980;2022-09-30T07:21:18;100913.00;;;5.82;73.03
69574;BME280;62840;52.366;5.980;2022-09-30T07:23:49;100904.88;;;5.85;73.21
69574;BME280;62840;52.366;5.980;2022-09-30T07:26:18;100909.06;;;5.89;73.34
69574;BME280;62840;52.366;5.980;2022-09-30T07:28:46;100909.69;;;5.93;73.34
69574;BME280;62840;52.366;5.980;2022-09-30T07:31:24;100901.38;;;5.99;73.32
69574;BME280;62840;52.366;5.980;2022-09-30T07:33:54;100908.94;;;6.05;73.07
69574;BME280;62840;52.366;5.980;2022-09-30T07:36:22;100908.53;;;6.11;73.31
69574;BME280;62840;52.366;5.980;2022-09-30T07:38:52;100910.91;;;6.16;73.24
69574;BME280;62840;52.366;5.980;2022-09-30T07:41:22;100908.81;;;6.21;73.19
69574;BME280;62840;52.366;5.980;2022-09-30T07:43:51;100908.41;;;6.27;73.46
69574;BME280;62840;52.366;5.980;2022-09-30T07:46:22;100907.19;;;6.33;73.30
69574;BME280;62840;52.366;5.980;2022-09-30T07:48:53;100916.53;;;6.38;73.36
69574;BME280;62840;52.366;5.980;2022-09-30T07:51:25;100906.38;;;6.45;73.24
69574;BME280;62840;52.366;5.980;2022-09-30T07:53:54;100905.16;;;6.50;73.46
69574;BME280;62840;52.366;5.980;2022-09-30T07:56:24;100906.44;;;6.58;73.27
69574;BME280;62840;52.366;5.980;2022-09-30T07:58:53;100912.13;;;6.66;73.53
69574;BME280;62840;52.366;5.980;2022-09-30T08:01:20;100902.81;;;6.73;73.18
69574;BME280;62840;52.366;5.980;2022-09-30T08:03:54;100901.44;;;6.80;73.22
69574;BME280;62840;52.366;5.980;2022-09-30T08:06:29;100900.84;;;6.89;73.45
69574;BME280;62840;52.366;5.980;2022-09-30T08:08:57;100902.13;;;6.97;73.37
69574;BME280;62840;52.366;5.980;2022-09-30T08:11:24;100895.25;;;7.07;73.43
69574;BME280;62840;52.366;5.980;2022-09-30T08:13:50;100900.91;;;7.15;73.52
69574;BME280;62840;52.366;5.980;2022-09-30T08:16:17;100903.88;;;7.23;73.56
69574;BME280;62840;52.366;5.980;2022-09-30T08:18:46;100897.94;;;7.32;73.75
69574;BME280;62840;52.366;5.980;2022-09-30T08:21:17;100900.97;;;7.41;73.72
69574;BME280;62840;52.366;5.980;2022-09-30T08:23:43;100902.03;;;7.51;73.97
69574;BME280;62840;52.366;5.980;2022-09-30T08:26:11;100909.25;;;7.62;74.03
69574;BME280;62840;52.366;5.980;2022-09-30T08:28:38;100902.44;;;7.70;74.20
69574;BME280;62840;52.366;5.980;2022-09-30T08:31:05;100906.19;;;7.81;73.92
69574;BME280;62840;52.366;5.980;2022-09-30T08:33:33;100907.22;;;7.91;74.07
69574;BME280;62840;52.366;5.980;2022-09-30T08:36:04;100910.94;;;8.01;74.38
69574;BME280;62840;52.366;5.980;2022-09-30T08:38:35;100916.31;;;8.12;74.20
69574;BME280;62840;52.366;5.980;2022-09-30T08:41:10;100923.41;;;8.25;74.42
69574;BME280;62840;52.366;5.980;2022-09-30T08:44:07;100918.91;;;8.38;74.63
69574;BME280;62840;52.366;5.980;2022-09-30T08:46:44;100918.03;;;8.50;74.68
69574;BME280;62840;52.366;5.980;2022-09-30T08:49:29;100918.84;;;8.64;74.88
69574;BME280;62840;52.366;5.980;2022-09-30T08:52:13;100919.59;;;8.77;74.92
69574;BME280;62840;52.366;5.980;2022-09-30T08:54:49;100917.00;;;8.88;74.80
69574;BME280;62840;52.366;5.980;2022-09-30T08:57:19;100912.69;;;8.98;75.15
69574;BME280;62840;52.366;5.980;2022-09-30T08:59:48;100910.94;;;9.10;75.44
69574;BME280;62840;52.366;5.980;2022-09-30T09:02:20;100912.69;;;9.23;75.24
69574;BME280;62840;52.366;5.980;2022-09-30T09:04:50;100904.63;;;9.35;75.41
69574;BME280;62840;52.366;5.980;2022-09-30T09:07:29;100911.69;;;9.48;75.10
69574;BME280;62840;52.366;5.980;2022-09-30T09:10:23;100915.09;;;9.61;75.35
69574;BME280;62840;52.366;5.980;2022-09-30T09:13:02;100904.31;;;9.74;75.06
69574;BME280;62840;52.366;5.980;2022-09-30T09:15:52;100905.91;;;9.88;74.83
69574;BME280;62840;52.366;5.980;2022-09-30T09:18:39;100900.59;;;9.99;74.93
69574;BME280;62840;52.366;5.980;2022-09-30T09:21:29;100911.25;;;10.10;74.62
69574;BME280;62840;52.366;5.980;2022-09-30T09:24:13;100908.56;;;10.21;74.61
69574;BME280;62840;52.366;5.980;2022-09-30T09:26:52;100909.50;;;10.32;74.54
69574;BME280;62840;52.366;5.980;2022-09-30T09:29:37;100913.00;;;10.43;74.37
69574;BME280;62840;52.366;5.980;2022-09-30T09:32:13;100911.41;;;10.52;74.26
69574;BME280;62840;52.366;5.980;2022-09-30T09:34:40;100911.63;;;10.60;74.21
69574;BME280;62840;52.366;5.980;2022-09-30T09:37:15;100915.94;;;10.73;73.63
69574;BME280;62840;52.366;5.980;2022-09-30T09:40:06;100914.94;;;10.85;73.76
69574;BME280;62840;52.366;5.980;2022-09-30T09:42:48;100923.06;;;10.95;73.53
69574;BME280;62840;52.366;5.980;2022-09-30T09:45:33;100923.13;;;11.04;73.26
69574;BME280;62840;52.366;5.980;2022-09-30T09:48:07;100918.00;;;11.13;73.45
69574;BME280;62840;52.366;5.980;2022-09-30T09:50:38;100920.19;;;11.19;73.08
69574;BME280;62840;52.366;5.980;2022-09-30T09:53:36;100915.72;;;11.29;72.91
69574;BME280;62840;52.366;5.980;2022-09-30T09:56:25;100915.81;;;11.39;72.78
69574;BME280;62840;52.366;5.980;2022-09-30T09:59:11;100912.22;;;11.49;72.94
69574;BME280;62840;52.366;5.980;2022-09-30T10:01:43;100908.06;;;11.57;72.68
69574;BME280;62840;52.366;5.980;2022-09-30T10:04:18;100908.94;;;11.67;72.28
69574;BME280;62840;52.366;5.980;2022-09-30T10:06:53;100904.75;;;11.74;72.24
69574;BME280;62840;52.366;5.980;2022-09-30T10:09:28;100903.28;;;11.81;72.43
69574;BME280;62840;52.366;5.980;2022-09-30T10:12:18;100905.13;;;11.90;71.91
69574;BME280;62840;52.366;5.980;2022-09-30T10:15:00;100911.63;;;11.98;72.01
69574;BME280;62840;52.366;5.980;2022-09-30T10:17:42;100914.47;;;12.06;71.62
69574;BME280;62840;52.366;5.980;2022-09-30T10:20:22;100903.00;;;12.15;71.56
69574;BME280;62840;52.366;5.980;2022-09-30T10:23:00;100902.16;;;12.24;71.48
69574;BME280;62840;52.366;5.980;2022-09-30T10:25:35;100905.00;;;12.32;71.25
69574;BME280;62840;52.366;5.980;2022-09-30T10:28:03;100897.16;;;12.41;71.25
69574;BME280;62840;52.366;5.980;2022-09-30T10:30:52;100901.69;;;12.50;71.46
69574;BME280;62840;52.366;5.980;2022-09-30T10:33:29;100897.47;;;12.57;71.25
69574;BME280;62840;52.366;5.980;2022-09-30T10:36:16;100895.91;;;12.64;70.93
69574;BME280;62840;52.366;5.980;2022-09-30T10:38:51;100901.72;;;12.69;71.10
69574;BME280;62840;52.366;5.980;2022-09-30T10:41:25;100903.81;;;12.75;70.90
69574;BME280;62840;52.366;5.980;2022-09-30T10:43:56;100895.25;;;12.82;70.48
69574;BME280;62840;52.366;5.980;2022-09-30T10:46:30;100898.06;;;12.90;70.11
69574;BME280;62840;52.366;5.980;2022-09-30T10:49:09;100891.88;;;12.99;70.31
69574;BME280;62840;52.366;5.980;2022-09-30T10:51:48;100896.38;;;13.08;69.84
69574;BME280;62840;52.366;5.980;2022-09-30T10:54:48;100890.44;;;13.14;69.87
69574;BME280;62840;52.366;5.980;2022-09-30T10:57:19;100894.25;;;13.22;69.73
69574;BME280;62840;52.366;5.980;2022-09-30T10:59:50;100889.03;;;13.30;69.04
69574;BME280;62840;52.366;5.980;2022-09-30T11:02:28;100889.00;;;13.40;69.27
69574;BME280;62840;52.366;5.980;2022-09-30T11:05:06;100880.22;;;13.47;68.88
69574;BME280;62840;52.366;5.980;2022-09-30T11:07:45;100874.31;;;13.53;68.65
69574;BME280;62840;52.366;5.980;2022-09-30T11:10:27;100882.50;;;13.62;68.63
69574;BME280;62840;52.366;5.980;2022-09-30T11:13:05;100873.84;;;13.68;68.66
69574;BME280;62840;52.366;5.980;2022-09-30T11:15:41;100868.91;;;13.73;68.59
69574;BME280;62840;52.366;5.980;2022-09-30T11:18:28;100872.00;;;13.78;68.32
69574;BME280;62840;52.366;5.980;2022-09-30T11:21:02;100868.03;;;13.82;68.41
69574;BME280;62840;52.366;5.980;2022-09-30T11:23:42;100871.81;;;13.89;67.96
69574;BME280;62840;52.366;5.980;2022-09-30T11:26:22;100880.94;;;13.96;67.40
69574;BME280;62840;52.366;5.980;2022-09-30T11:29:10;100876.66;;;14.04;67.47
69574;BME280;62840;52.366;5.980;2022-09-30T11:31:52;100878.06;;;14.08;66.31
69574;BME280;62840;52.366;5.980;2022-09-30T11:34:39;100878.75;;;14.10;66.04
69574;BME280;62840;52.366;5.980;2022-09-30T11:37:26;100876.47;;;14.15;66.42
69574;BME280;62840;52.366;5.980;2022-09-30T11:40:28;100863.31;;;14.22;65.65
69574;BME280;62840;52.366;5.980;2022-09-30T11:43:00;100862.16;;;14.24;65.57
69574;BME280;62840;52.366;5.980;2022-09-30T11:45:50;100861.56;;;14.30;65.95
69574;BME280;62840;52.366;5.980;2022-09-30T11:48:42;100861.81;;;14.37;65.54
69574;BME280;62840;52.366;5.980;2022-09-30T11:51:31;100854.13;;;14.42;65.08
69574;BME280;62840;52.366;5.980;2022-09-30T11:54:19;100849.00;;;14.49;64.99
69574;BME280;62840;52.366;5.980;2022-09-30T11:56:56;100839.38;;;14.56;64.29
69574;BME280;62840;52.366;5.980;2022-09-30T11:59:37;100846.50;;;14.65;64.35
69574;BME280;62840;52.366;5.980;2022-09-30T12:02:17;100846.88;;;14.70;64.03
69574;BME280;62840;52.366;5.980;2022-09-30T12:04:56;100844.59;;;14.75;64.38
69574;BME280;62840;52.366;5.980;2022-09-30T12:07:36;100849.34;;;14.81;63.99
69574;BME280;62840;52.366;5.980;2022-09-30T12:10:16;100842.84;;;14.84;63.86
69574;BME280;62840;52.366;5.980;2022-09-30T12:13:01;100845.06;;;14.89;64.29
69574;BME280;62840;52.366;5.980;2022-09-30T12:15:42;100839.34;;;14.92;63.99
69574;BME280;62840;52.366;5.980;2022-09-30T12:18:15;100829.72;;;14.99;64.24
69574;BME280;62840;52.366;5.980;2022-09-30T12:20:49;100831.91;;;15.03;64.04
69574;BME280;62840;52.366;5.980;2022-09-30T12:23:29;100831.59;;;15.07;63.90
69574;BME280;62840;52.366;5.980;2022-09-30T12:26:01;100835.81;;;15.09;63.80
69574;BME280;62840;52.366;5.980;2022-09-30T12:28:32;100834.13;;;15.08;63.59
69574;BME280;62840;52.366;5.980;2022-09-30T12:31:19;100826.22;;;15.07;63.53
69574;BME280;62840;52.366;5.980;2022-09-30T12:34:11;100829.94;;;15.06;63.63
69574;BME280;62840;52.366;5.980;2022-09-30T12:37:04;100824.56;;;15.06;63.31
69574;BME280;62840;52.366;5.980;2022-09-30T12:40:00;100826.78;;;15.10;63.93
69574;BME280;62840;52.366;5.980;2022-09-30T12:43:04;100827.13;;;15.15;63.79
69574;BME280;62840;52.366;5.980;2022-09-30T12:46:12;100825.13;;;15.17;63.23
69574;BME280;62840;52.366;5.980;2022-09-30T12:48:44;100833.19;;;15.17;63.99
69574;BME280;62840;52.366;5.980;2022-09-30T12:51:34;100830.50;;;15.17;63.77
69574;BME280;62840;52.366;5.980;2022-09-30T12:54:14;100828.81;;;15.16;63.81
69574;BME280;62840;52.366;5.980;2022-09-30T12:56:53;100826.13;;;15.16;63.50
69574;BME280;62840;52.366;5.980;2022-09-30T12:59:30;100818.75;;;15.18;63.23
69574;BME280;62840;52.366;5.980;2022-09-30T13:02:06;100829.19;;;15.21;63.06
69574;BME280;62840;52.366;5.980;2022-09-30T13:04:51;100820.13;;;15.22;63.30
69574;BME280;62840;52.366;5.980;2022-09-30T13:07:20;100814.41;;;15.26;63.50
69574;BME280;62840;52.366;5.980;2022-09-30T13:10:26;100813.78;;;15.32;62.87
69574;BME280;62840;52.366;5.980;2022-09-30T13:13:18;100811.16;;;15.40;62.62
69574;BME280;62840;52.366;5.980;2022-09-30T13:15:49;100813.88;;;15.48;62.57
69574;BME280;62840;52.366;5.980;2022-09-30T13:21:24;100802.50;;;15.54;62.39
69574;BME280;62840;52.366;5.980;2022-09-30T13:23:50;100798.50;;;15.58;62.60
69574;BME280;62840;52.366;5.980;2022-09-30T13:26:33;100797.31;;;15.61;61.49
69574;BME280;62840;52.366;5.980;2022-09-30T13:29:30;100799.53;;;15.65;61.93
69574;BME280;62840;52.366;5.980;2022-09-30T13:32:03;100798.22;;;15.70;62.32
69574;BME280;62840;52.366;5.980;2022-09-30T13:34:51;100801.94;;;15.77;61.55
69574;BME280;62840;52.366;5.980;2022-09-30T13:37:36;100795.41;;;15.79;62.02
69574;BME280;62840;52.366;5.980;2022-09-30T13:40:14;100794.28;;;15.82;62.04
69574;BME280;62840;52.366;5.980;2022-09-30T13:42:52;100789.16;;;15.79;61.74
69574;BME280;62840;52.366;5.980;2022-09-30T13:45:30;100787.81;;;15.75;61.83
69574;BME280;62840;52.366;5.980;2022-09-30T13:48:05;100783.09;;;15.69;61.98
69574;BME280;62840;52.366;5.980;2022-09-30T13:51:10;100782.56;;;15.65;61.83